Time;durP1;ratioP1;P1;durP2;ratioP2;P2;SDS_P1;SDS_P2;PMS_P1;PMS_P2;Temp;Humidity;BMP_temperature;BMP_pressure;BME280_temperature;BME280_humidity;BME280_pressure;Samples;Min_cycle;Max_cycle;Signal;HPM_P1;HPM_P2
2023/07/23 00:02:14;;;;;;;3.15;2.40;;;26.00;84.20;;;;;;5098519;28;20441;-80
2023/07/23 00:04:40;;;;;;;2.58;2.00;;;26.00;84.00;;;;;;5116478;28;20017;-80
2023/07/23 00:07:06;;;;;;;3.63;2.17;;;26.00;84.20;;;;;;5116753;28;20035;-80
2023/07/23 00:09:31;;;;;;;3.95;2.47;;;26.00;84.30;;;;;;5117476;28;20019;-80
2023/07/23 00:11:57;;;;;;;3.65;2.40;;;25.90;84.40;;;;;;5117298;28;20023;-80
2023/07/23 00:14:23;;;;;;;2.83;2.10;;;25.90;84.70;;;;;;5117049;28;20476;-81
2023/07/23 00:16:48;;;;;;;4.43;2.60;;;25.90;84.80;;;;;;5117272;28;20027;-81
2023/07/23 00:19:19;;;;;;;3.83;2.20;;;25.80;84.90;;;;;;5117165;28;20031;-81
2023/07/23 00:21:48;;;;;;;3.05;2.08;;;25.80;85.00;;;;;;5116266;28;20027;-80
2023/07/23 00:24:15;;;;;;;3.15;2.10;;;25.70;85.10;;;;;;5117104;28;20415;-80
2023/07/23 00:26:41;;;;;;;2.85;2.25;;;25.70;84.90;;;;;;5117010;28;20054;-79
2023/07/23 00:29:07;;;;;;;4.20;2.20;;;25.70;84.90;;;;;;5115709;28;20065;-80
2023/07/23 00:31:32;;;;;;;4.80;2.40;;;25.70;85.00;;;;;;5116388;28;20027;-80
2023/07/23 00:33:58;;;;;;;4.22;2.30;;;25.70;84.90;;;;;;5116979;28;20144;-80
2023/07/23 00:36:24;;;;;;;7.25;2.67;;;25.70;85.00;;;;;;5116682;28;20118;-80
2023/07/23 00:38:49;;;;;;;4.80;2.50;;;25.60;84.90;;;;;;5117130;28;20026;-80
2023/07/23 00:41:15;;;;;;;2.67;1.95;;;25.60;84.90;;;;;;5115470;28;20043;-80
2023/07/23 00:43:41;;;;;;;2.65;2.08;;;25.60;85.10;;;;;;5116298;28;20027;-79
2023/07/23 00:46:08;;;;;;;2.28;1.90;;;25.60;85.00;;;;;;5116233;28;20027;-79
2023/07/23 00:48:34;;;;;;;4.30;2.65;;;25.60;84.70;;;;;;5115179;28;20032;-80
2023/07/23 00:51:00;;;;;;;3.47;2.10;;;25.60;84.50;;;;;;5116480;28;20036;-79
2023/07/23 00:53:27;;;;;;;3.95;2.13;;;25.60;84.50;;;;;;5116766;28;20035;-79
2023/07/23 00:55:56;;;;;;;3.08;2.40;;;25.50;84.60;;;;;;5115383;28;20066;-79
2023/07/23 00:58:22;;;;;;;3.40;2.30;;;25.40;84.60;;;;;;5116843;28;20493;-80
2023/07/23 01:00:50;;;;;;;4.60;2.05;;;25.40;84.40;;;;;;5115873;28;20051;-79
2023/07/23 01:03:15;;;;;;;3.22;2.10;;;25.40;84.50;;;;;;5116465;28;20080;-80
2023/07/23 01:05:44;;;;;;;4.72;2.75;;;25.30;84.50;;;;;;5115034;28;20031;-80
2023/07/23 01:08:11;;;;;;;3.05;1.73;;;25.40;85.10;;;;;;5116328;28;20098;-80
2023/07/23 01:10:37;;;;;;;4.18;2.33;;;25.30;85.20;;;;;;5115977;28;20427;-80
2023/07/23 01:13:03;;;;;;;3.35;2.20;;;25.30;84.70;;;;;;5115096;28;20036;-80
2023/07/23 01:15:31;;;;;;;4.75;2.10;;;25.30;84.70;;;;;;5116038;28;20452;-78
2023/07/23 01:17:59;;;;;;;4.85;2.38;;;25.20;84.90;;;;;;5115991;28;20350;-78
2023/07/23 01:20:25;;;;;;;4.18;2.40;;;25.20;84.90;;;;;;5115882;27;20369;-81
2023/07/23 01:22:50;;;;;;;5.40;2.47;;;25.20;84.80;;;;;;5116035;28;20031;-81
2023/07/23 01:25:16;;;;;;;5.78;2.40;;;25.20;84.80;;;;;;5114398;28;20034;-79
2023/07/23 01:27:42;;;;;;;3.08;2.15;;;25.20;85.00;;;;;;5115733;28;20035;-78
2023/07/23 01:30:10;;;;;;;2.58;2.22;;;25.20;84.80;;;;;;5115598;28;20404;-79
2023/07/23 01:32:40;;;;;;;2.38;1.80;;;25.10;84.60;;;;;;5115399;28;20043;-79
2023/07/23 01:35:16;;;;;;;3.57;2.40;;;25.10;84.60;;;;;;5114419;28;20047;-79
2023/07/23 01:37:44;;;;;;;3.10;2.30;;;25.10;84.40;;;;;;5115644;28;20106;-79
2023/07/23 01:40:10;;;;;;;5.95;2.33;;;25.10;84.60;;;;;;5115637;28;20053;-81
2023/07/23 01:42:36;;;;;;;2.70;1.95;;;25.10;84.70;;;;;;5115270;28;20031;-81
2023/07/23 01:45:03;;;;;;;2.70;2.17;;;25.10;84.50;;;;;;5115172;28;20479;-78
2023/07/23 01:47:29;;;;;;;3.67;2.40;;;25.10;84.60;;;;;;5115345;28;20484;-78
2023/07/23 01:49:55;;;;;;;4.25;2.70;;;25.10;84.70;;;;;;5114175;28;20027;-78
2023/07/23 01:52:21;;;;;;;3.03;2.00;;;25.00;84.50;;;;;;5115067;28;20032;-78
2023/07/23 01:54:46;;;;;;;3.33;2.17;;;25.00;84.80;;;;;;5115459;28;20028;-78
2023/07/23 01:57:12;;;;;;;4.00;2.33;;;25.00;84.90;;;;;;5115366;28;20031;-77
2023/07/23 01:59:38;;;;;;;2.88;2.10;;;24.90;84.90;;;;;;5114956;28;20125;-78
2023/07/23 02:02:06;;;;;;;5.00;2.63;;;24.90;85.00;;;;;;5114457;28;20118;-78
2023/07/23 02:04:32;;;;;;;2.20;1.80;;;24.90;84.90;;;;;;5115145;28;20430;-78
2023/07/23 02:06:58;;;;;;;3.95;2.00;;;24.90;85.00;;;;;;5115234;28;20027;-77
2023/07/23 02:09:23;;;;;;;3.45;2.08;;;24.90;84.90;;;;;;5115026;28;20020;-77
2023/07/23 02:11:49;;;;;;;2.95;2.33;;;24.80;85.10;;;;;;5114892;28;20031;-78
2023/07/23 02:14:15;;;;;;;4.20;2.20;;;24.80;85.00;;;;;;5114956;28;20023;-78
2023/07/23 02:16:41;;;;;;;3.22;2.28;;;24.90;85.10;;;;;;5114941;28;20079;-78
2023/07/23 02:19:07;;;;;;;2.90;2.33;;;24.90;85.10;;;;;;5114948;28;20418;-78
2023/07/23 02:21:32;;;;;;;3.88;2.10;;;24.90;84.80;;;;;;5114274;28;20035;-78
2023/07/23 02:23:58;;;;;;;5.15;2.42;;;24.90;84.70;;;;;;5114935;28;20058;-86
2023/07/23 02:26:24;;;;;;;1.98;1.77;;;24.80;84.60;;;;;;5115603;28;20027;-88
2023/07/23 02:28:49;;;;;;;3.40;1.85;;;24.80;84.60;;;;;;5115158;28;20116;-88
2023/07/23 02:31:15;;;;;;;3.60;2.05;;;24.90;84.70;;;;;;5115420;28;20028;-87
2023/07/23 02:33:42;;;;;;;3.08;2.10;;;24.90;85.10;;;;;;5115481;28;20023;-87
2023/07/23 02:36:09;;;;;;;3.70;1.90;;;24.90;84.70;;;;;;5115374;28;20032;-91
2023/07/23 02:38:35;;;;;;;3.58;2.00;;;24.90;84.40;;;;;;5115282;28;20385;-88
2023/07/23 02:41:01;;;;;;;2.88;2.00;;;24.80;84.30;;;;;;5114824;28;20122;-87
2023/07/23 02:43:27;;;;;;;2.60;1.65;;;24.80;84.40;;;;;;5115487;28;20018;-88
2023/07/23 02:45:53;;;;;;;3.80;2.00;;;24.80;84.60;;;;;;5115472;28;20024;-89
2023/07/23 02:48:18;;;;;;;2.58;1.70;;;24.80;84.60;;;;;;5115584;28;20015;-89
2023/07/23 02:50:44;;;;;;;2.67;2.00;;;24.80;84.50;;;;;;5115558;28;20077;-89
2023/07/23 02:53:10;;;;;;;3.05;2.20;;;24.80;84.40;;;;;;5114510;28;20102;-89
2023/07/23 02:55:36;;;;;;;4.32;2.30;;;24.80;84.50;;;;;;5115265;28;20031;-88
2023/07/23 02:58:03;;;;;;;3.58;2.20;;;24.80;84.50;;;;;;5115287;28;20022;-89
2023/07/23 03:00:30;;;;;;;3.72;2.33;;;24.80;84.10;;;;;;5094731;22;20139;-80
2023/07/23 03:02:56;;;;;;;4.13;2.35;;;24.80;84.00;;;;;;5072785;28;20033;-81
2023/07/23 03:05:24;;;;;;;2.95;1.98;;;24.70;83.80;;;;;;5073419;28;20031;-80
2023/07/23 03:07:51;;;;;;;2.70;1.75;;;24.70;83.80;;;;;;5073832;28;20024;-80
2023/07/23 03:10:17;;;;;;;3.20;1.80;;;24.70;83.80;;;;;;5073512;28;20112;-80
2023/07/23 03:12:43;;;;;;;5.03;2.30;;;24.70;83.90;;;;;;5073901;28;20112;-79
2023/07/23 03:15:10;;;;;;;2.60;1.88;;;24.70;83.80;;;;;;5072652;28;20040;-79
2023/07/23 03:17:36;;;;;;;2.97;2.08;;;24.60;83.50;;;;;;5073277;28;20032;-79
2023/07/23 03:20:03;;;;;;;4.68;2.20;;;24.60;83.70;;;;;;5039158;28;20482;-79
2023/07/23 03:22:29;;;;;;;2.90;1.90;;;24.50;83.60;;;;;;5055528;28;20035;-79
2023/07/23 03:24:55;;;;;;;2.95;2.25;;;24.60;83.70;;;;;;5073223;28;20111;-80
2023/07/23 03:27:21;;;;;;;4.85;2.42;;;24.50;83.90;;;;;;5072934;28;20078;-80
2023/07/23 03:29:47;;;;;;;3.78;2.30;;;24.50;83.70;;;;;;5073279;28;20537;-79
2023/07/23 03:32:12;;;;;;;2.60;2.10;;;24.50;83.70;;;;;;5073444;28;20178;-79
2023/07/23 03:34:38;;;;;;;2.78;2.05;;;24.50;83.60;;;;;;5073201;28;20029;-79
2023/07/23 03:37:04;;;;;;;3.85;2.10;;;24.60;83.50;;;;;;5072455;28;20415;-79
2023/07/23 03:39:30;;;;;;;4.28;2.13;;;24.50;83.40;;;;;;5072990;28;20040;-79
2023/07/23 03:41:56;;;;;;;5.72;1.83;;;24.50;83.30;;;;;;5074190;28;20033;-79
2023/07/23 03:44:21;;;;;;;2.38;1.80;;;24.50;83.60;;;;;;5055728;28;20020;-79
2023/07/23 03:47:13;;;;;;;2.85;1.80;;;24.50;83.40;;;;;;5073162;28;20101;-79
2023/07/23 03:49:39;;;;;;;3.33;1.92;;;24.50;83.30;;;;;;5073241;28;20024;-79
2023/07/23 03:52:05;;;;;;;3.03;2.20;;;24.50;83.30;;;;;;5054957;28;20033;-79
2023/07/23 03:54:32;;;;;;;2.95;2.20;;;24.50;83.40;;;;;;5072723;28;20033;-78
2023/07/23 03:56:57;;;;;;;3.90;1.92;;;24.50;83.20;;;;;;5073454;28;20047;-79
2023/07/23 03:59:29;;;;;;;2.63;1.80;;;24.50;83.30;;;;;;5073089;28;20497;-79
2023/07/23 04:01:55;;;;;;;2.58;2.10;;;24.50;83.20;;;;;;5072504;28;20044;-79
2023/07/23 04:04:21;;;;;;;2.95;1.77;;;24.50;83.10;;;;;;5067513;28;20391;-79
2023/07/23 04:06:47;;;;;;;3.10;2.00;;;24.50;83.20;;;;;;5052892;28;20502;-79
2023/07/23 04:09:13;;;;;;;4.32;2.25;;;24.50;83.00;;;;;;5052959;28;20374;-79
2023/07/23 04:11:39;;;;;;;3.65;2.10;;;24.40;83.10;;;;;;5052557;28;20016;-79
2023/07/23 04:14:06;;;;;;;2.45;1.77;;;24.40;83.10;;;;;;5052738;28;20029;-79
2023/07/23 04:16:32;;;;;;;4.72;2.00;;;24.50;82.90;;;;;;5052683;28;20033;-79
2023/07/23 04:18:57;;;;;;;2.78;2.15;;;24.50;83.20;;;;;;5052675;28;20102;-79
2023/07/23 04:21:23;;;;;;;4.38;2.30;;;24.50;83.20;;;;;;5053213;28;20036;-79
2023/07/23 04:23:50;;;;;;;3.80;1.95;;;24.40;82.90;;;;;;5053017;28;20513;-79
2023/07/23 04:26:17;;;;;;;2.70;2.08;;;24.50;82.80;;;;;;5072018;28;20490;-79
2023/07/23 04:28:44;;;;;;;2.60;2.03;;;24.50;82.80;;;;;;5072858;28;20082;-79
2023/07/23 04:31:10;;;;;;;3.97;1.75;;;24.50;82.60;;;;;;5072525;28;20036;-79
2023/07/23 04:33:35;;;;;;;3.10;2.00;;;24.50;82.60;;;;;;5072548;28;20390;-79
2023/07/23 04:36:03;;;;;;;3.15;1.90;;;24.50;82.70;;;;;;5072312;28;20029;-79
2023/07/23 04:38:28;;;;;;;2.95;1.90;;;24.50;82.40;;;;;;5072959;28;20115;-79
2023/07/23 04:40:54;;;;;;;2.50;1.90;;;24.50;82.60;;;;;;5072590;28;20143;-79
2023/07/23 04:43:20;;;;;;;2.90;1.88;;;24.50;82.60;;;;;;5072496;28;20028;-79
2023/07/23 04:45:45;;;;;;;2.65;1.65;;;24.50;82.40;;;;;;5072200;28;20040;-79
2023/07/23 04:48:12;;;;;;;3.67;2.00;;;24.50;82.20;;;;;;5074293;28;20025;-79
2023/07/23 04:50:38;;;;;;;3.42;1.88;;;24.50;81.80;;;;;;5076112;28;20028;-79
2023/07/23 04:53:04;;;;;;;3.58;2.10;;;24.50;81.90;;;;;;5076123;28;20412;-79
2023/07/23 04:55:29;;;;;;;1.95;1.63;;;24.60;81.90;;;;;;5075802;28;20036;-79
2023/07/23 04:57:55;;;;;;;3.20;2.22;;;24.50;81.90;;;;;;5075336;28;20478;-79
2023/07/23 05:00:22;;;;;;;2.38;1.85;;;24.50;81.80;;;;;;5075575;28;20055;-79
2023/07/23 05:02:47;;;;;;;3.80;2.08;;;24.50;81.60;;;;;;5075658;28;20091;-79
2023/07/23 05:05:13;;;;;;;3.13;1.98;;;24.50;81.70;;;;;;5057614;28;20028;-79
2023/07/23 05:07:40;;;;;;;2.45;1.70;;;24.50;81.80;;;;;;5075753;28;20016;-79
2023/07/23 05:10:06;;;;;;;3.08;1.98;;;24.50;81.80;;;;;;5075943;28;20020;-79
2023/07/23 05:12:32;;;;;;;4.57;2.20;;;24.50;82.00;;;;;;5075888;28;20074;-79
2023/07/23 05:15:12;;;;;;;3.17;1.90;;;24.50;82.10;;;;;;5057180;28;20029;-79
2023/07/23 05:17:39;;;;;;;4.53;2.08;;;24.50;82.10;;;;;;5075286;28;20040;-79
2023/07/23 05:20:06;;;;;;;5.07;2.08;;;24.60;82.20;;;;;;5057663;28;20025;-79
2023/07/23 05:22:37;;;;;;;3.03;1.77;;;24.60;82.00;;;;;;5075632;28;20036;-79
2023/07/23 05:25:03;;;;;;;3.40;2.10;;;24.60;82.10;;;;;;5075208;28;20021;-79
2023/07/23 05:27:30;;;;;;;3.28;1.48;;;24.60;82.00;;;;;;5075380;28;20154;-79
2023/07/23 05:29:55;;;;;;;2.30;1.90;;;24.60;82.20;;;;;;5075554;28;20367;-79
2023/07/23 05:32:21;;;;;;;4.78;2.53;;;24.60;82.00;;;;;;5075524;28;20028;-79
2023/07/23 05:34:47;;;;;;;2.60;1.80;;;24.60;82.00;;;;;;5074991;28;20020;-79
2023/07/23 05:37:13;;;;;;;3.13;1.73;;;24.60;82.10;;;;;;5075346;28;20597;-80
2023/07/23 05:39:38;;;;;;;2.65;2.00;;;24.60;82.20;;;;;;5075379;28;20195;-80
2023/07/23 05:42:04;;;;;;;2.42;1.73;;;24.60;81.90;;;;;;5075128;28;20366;-80
2023/07/23 05:44:31;;;;;;;3.40;1.70;;;24.70;82.00;;;;;;5074409;28;20121;-80
2023/07/23 05:46:57;;;;;;;9.70;2.20;;;24.70;82.10;;;;;;5074979;28;20029;-80
2023/07/23 05:49:24;;;;;;;2.33;1.77;;;24.80;81.70;;;;;;5075042;28;20032;-80
2023/07/23 05:51:51;;;;;;;3.95;2.00;;;24.70;81.90;;;;;;5055735;28;20024;-80
2023/07/23 05:54:16;;;;;;;3.50;2.20;;;24.80;81.80;;;;;;5074818;28;20067;-80
2023/07/23 05:56:42;;;;;;;4.38;2.88;;;24.80;81.90;;;;;;5074925;28;20057;-80
2023/07/23 05:59:08;;;;;;;4.43;1.70;;;24.80;81.70;;;;;;5056019;28;20084;-80
2023/07/23 06:01:33;;;;;;;2.63;2.03;;;24.80;81.90;;;;;;5061329;28;20041;-80
2023/07/23 06:03:59;;;;;;;2.38;1.92;;;24.90;81.80;;;;;;5064012;28;20082;-80
2023/07/23 06:06:25;;;;;;;7.15;2.03;;;24.90;81.70;;;;;;5056944;28;20028;-80
2023/07/23 06:08:50;;;;;;;2.30;2.00;;;25.00;82.00;;;;;;5074749;28;20474;-80
2023/07/23 06:11:16;;;;;;;3.38;2.15;;;25.00;81.50;;;;;;5074271;28;20409;-79
2023/07/23 06:13:42;;;;;;;3.70;1.90;;;25.00;81.40;;;;;;5073780;28;20036;-79
2023/07/23 06:16:07;;;;;;;2.63;1.80;;;25.10;81.30;;;;;;5074393;28;20035;-79
2023/07/23 06:18:36;;;;;;;3.20;1.88;;;25.10;81.40;;;;;;5074601;28;20108;-79
2023/07/23 06:21:02;;;;;;;2.15;1.70;;;25.10;81.50;;;;;;5074244;28;20036;-79
2023/07/23 06:23:28;;;;;;;2.72;1.65;;;25.20;81.20;;;;;;5074053;28;20374;-79
2023/07/23 06:25:57;;;;;;;3.22;1.83;;;25.20;81.40;;;;;;5074345;28;20021;-79
2023/07/23 06:28:23;;;;;;;3.72;2.05;;;25.30;81.20;;;;;;5056257;28;20418;-79
2023/07/23 06:30:53;;;;;;;3.72;2.05;;;25.30;81.50;;;;;;5070130;28;20498;-79
2023/07/23 06:33:19;;;;;;;2.75;1.73;;;25.40;81.50;;;;;;5086133;28;20024;-79
2023/07/23 06:35:46;;;;;;;4.07;2.22;;;25.40;81.80;;;;;;5084453;28;20033;-79
2023/07/23 06:38:12;;;;;;;6.88;2.80;;;25.50;81.00;;;;;;5072937;28;20059;-79
2023/07/23 06:40:43;;;;;;;2.50;1.58;;;25.50;80.00;;;;;;5055540;28;20067;-79
2023/07/23 06:43:09;;;;;;;4.30;1.98;;;25.50;80.60;;;;;;5083606;28;20037;-77
2023/07/23 06:45:35;;;;;;;2.47;1.60;;;25.50;81.10;;;;;;5059191;28;20073;-77
2023/07/23 06:48:00;;;;;;;2.88;1.58;;;25.60;81.20;;;;;;5067427;28;20488;-78
2023/07/23 06:50:26;;;;;;;4.13;2.10;;;25.70;81.30;;;;;;5091532;28;20027;-77
2023/07/23 06:52:52;;;;;;;2.63;2.08;;;25.70;81.10;;;;;;5085576;28;20028;-78
2023/07/23 06:55:17;;;;;;;2.72;1.80;;;25.80;80.80;;;;;;5090743;28;20020;-77
2023/07/23 06:57:43;;;;;;;2.50;1.92;;;25.80;80.70;;;;;;5065806;28;20107;-77
2023/07/23 07:00:10;;;;;;;3.50;2.28;;;25.80;81.00;;;;;;5049273;28;20052;-77
2023/07/23 07:02:36;;;;;;;2.10;1.63;;;25.90;81.20;;;;;;5064597;28;20221;-83
2023/07/23 07:05:02;;;;;;;2.58;1.63;;;26.00;81.20;;;;;;5073207;28;20525;-81
2023/07/23 07:07:27;;;;;;;3.03;2.17;;;26.00;80.80;;;;;;5078453;28;20043;-81
2023/07/23 07:09:53;;;;;;;2.33;1.70;;;26.10;80.60;;;;;;5073042;28;20033;-82
2023/07/23 07:12:19;;;;;;;4.03;1.90;;;26.10;80.50;;;;;;5067392;28;20058;-78
2023/07/23 07:14:44;;;;;;;2.95;1.90;;;26.20;80.10;;;;;;5083235;28;20082;-78
2023/07/23 07:17:10;;;;;;;2.95;1.73;;;26.20;79.70;;;;;;5067468;28;20021;-79
2023/07/23 07:19:36;;;;;;;3.38;1.90;;;26.20;79.90;;;;;;5064601;28;20029;-78
2023/07/23 07:22:02;;;;;;;3.50;1.88;;;26.30;79.70;;;;;;5071136;28;20031;-79
2023/07/23 07:24:28;;;;;;;2.28;2.05;;;26.30;79.30;;;;;;5077778;28;20362;-78
2023/07/23 07:26:54;;;;;;;2.30;1.85;;;26.40;79.20;;;;;;5088275;28;20051;-78
2023/07/23 07:29:20;;;;;;;3.15;2.47;;;26.40;79.30;;;;;;5072798;28;20470;-81
2023/07/23 07:31:48;;;;;;;3.55;2.55;;;26.50;79.50;;;;;;5073306;28;20028;-80
2023/07/23 07:34:13;;;;;;;3.63;2.08;;;26.50;78.60;;;;;;5072643;28;20032;-79
2023/07/23 07:36:39;;;;;;;3.80;2.38;;;26.50;79.00;;;;;;5073146;28;20108;-79
2023/07/23 07:39:05;;;;;;;2.88;1.90;;;26.60;79.10;;;;;;5073047;28;20466;-79
2023/07/23 07:41:31;;;;;;;4.10;2.10;;;26.70;79.30;;;;;;5071974;28;20063;-79
2023/07/23 07:43:57;;;;;;;4.80;2.63;;;26.70;79.40;;;;;;5072805;28;20056;-79
2023/07/23 07:46:23;;;;;;;2.75;1.83;;;26.80;79.30;;;;;;5062787;28;20521;-79
2023/07/23 07:48:49;;;;;;;2.63;2.10;;;26.80;79.10;;;;;;5062492;28;20033;-79
2023/07/23 07:51:14;;;;;;;3.33;2.28;;;26.90;79.40;;;;;;5053935;28;20024;-80
2023/07/23 07:53:40;;;;;;;3.20;1.90;;;27.00;79.80;;;;;;5071087;28;20535;-80
2023/07/23 07:56:12;;;;;;;3.17;2.45;;;27.10;79.70;;;;;;5072361;28;20024;-79
2023/07/23 07:58:38;;;;;;;4.13;2.28;;;27.20;79.60;;;;;;5054392;28;20104;-81
2023/07/23 08:01:04;;;;;;;4.38;2.35;;;27.30;79.70;;;;;;5072267;28;20410;-82
2023/07/23 08:03:31;;;;;;;5.20;2.58;;;27.30;79.30;;;;;;5070914;28;20017;-82
2023/07/23 08:05:58;;;;;;;4.28;2.40;;;27.40;79.50;;;;;;5072277;28;20016;-82
2023/07/23 08:08:29;;;;;;;5.57;2.75;;;27.40;79.70;;;;;;5072125;28;20028;-82
2023/07/23 08:10:57;;;;;;;5.28;2.38;;;27.50;79.30;;;;;;5054229;28;20021;-82
2023/07/23 08:13:24;;;;;;;2.55;2.10;;;27.50;79.40;;;;;;5072128;28;20090;-82
2023/07/23 08:15:51;;;;;;;4.75;2.78;;;27.60;79.80;;;;;;5072137;28;20035;-82
2023/07/23 08:18:17;;;;;;;5.38;2.35;;;27.70;79.90;;;;;;5072285;28;20036;-83
2023/07/23 08:20:43;;;;;;;4.07;2.80;;;27.70;79.50;;;;;;5071767;28;20025;-82
2023/07/23 08:23:09;;;;;;;2.67;2.15;;;27.70;79.30;;;;;;5073581;28;20386;-82
2023/07/23 08:25:36;;;;;;;4.90;3.00;;;27.80;79.30;;;;;;5075671;28;20032;-81
2023/07/23 08:28:02;;;;;;;10.95;3.22;;;27.90;79.60;;;;;;5075664;28;20048;-82
2023/07/23 08:30:30;;;;;;;3.55;2.75;;;27.90;78.40;;;;;;5075576;28;20496;-82
2023/07/23 08:32:57;;;;;;;5.18;2.78;;;28.00;79.00;;;;;;5057632;28;20067;-82
2023/07/23 08:35:25;;;;;;;5.63;2.83;;;28.00;79.40;;;;;;5075522;28;20103;-82
2023/07/23 08:37:51;;;;;;;5.45;2.97;;;28.10;79.50;;;;;;5075810;28;20048;-82
2023/07/23 08:40:18;;;;;;;5.47;2.50;;;28.10;78.80;;;;;;5075661;28;20504;-82
2023/07/23 08:42:55;;;;;;;6.55;2.83;;;28.20;78.70;;;;;;5075618;28;20111;-82
2023/07/23 08:45:30;;;;;;;5.53;3.35;;;28.30;78.90;;;;;;5058005;28;20024;-82
2023/07/23 08:48:12;;;;;;;4.10;2.95;;;28.30;79.30;;;;;;5057747;28;20092;-82
2023/07/23 08:50:39;;;;;;;4.78;2.70;;;28.40;79.40;;;;;;5075707;28;20028;-82
2023/07/23 08:53:09;;;;;;;6.82;3.25;;;28.50;79.80;;;;;;5075498;28;20035;-82
2023/07/23 08:55:35;;;;;;;;;;;28.60;79.80;;;;;;5075958;28;20071;-82
2023/07/23 08:58:01;;;;;;;4.22;2.88;;;28.70;80.10;;;;;;5075499;28;19908;-82
2023/07/23 09:00:28;;;;;;;3.45;2.30;;;28.90;80.00;;;;;;5075333;28;20131;-82
2023/07/23 09:02:54;;;;;;;8.20;3.25;;;28.90;79.90;;;;;;5075362;28;20089;-82
2023/07/23 09:05:20;;;;;;;4.45;2.53;;;29.00;79.80;;;;;;5075049;28;20024;-82
2023/07/23 09:07:48;;;;;;;5.03;3.05;;;29.00;79.70;;;;;;5070468;28;20021;-82
2023/07/23 09:10:13;;;;;;;4.50;2.85;;;29.20;79.30;;;;;;5061292;28;20040;-82
2023/07/23 09:12:42;;;;;;;5.47;3.03;;;29.20;80.00;;;;;;5067126;28;20028;-82
2023/07/23 09:15:08;;;;;;;4.43;2.70;;;29.30;80.20;;;;;;5069175;28;20040;-82
2023/07/23 09:17:34;;;;;;;4.07;2.60;;;29.30;79.50;;;;;;5065897;28;20040;-83
2023/07/23 09:20:00;;;;;;;4.00;2.67;;;29.40;78.70;;;;;;5066166;28;20036;-81
2023/07/23 09:22:31;;;;;;;5.63;2.55;;;29.40;79.10;;;;;;5065061;28;20028;-81
2023/07/23 09:25:00;;;;;;;5.05;2.60;;;29.50;79.20;;;;;;5072615;28;20075;-84
2023/07/23 09:27:37;;;;;;;5.40;3.10;;;29.50;78.70;;;;;;5073088;28;20035;-95
2023/07/23 09:30:03;;;;;;;5.22;2.90;;;29.60;79.10;;;;;;5075832;28;20024;-87
2023/07/23 09:32:30;;;;;;;4.15;2.95;;;29.60;79.30;;;;;;5066700;28;20021;-83
2023/07/23 09:35:00;;;;;;;4.05;2.53;;;29.70;79.40;;;;;;5061665;28;20090;-89
2023/07/23 09:37:29;;;;;;;4.05;2.70;;;29.80;79.50;;;;;;5063022;28;20024;-91
2023/07/23 09:39:56;;;;;;;3.45;2.40;;;29.80;80.00;;;;;;5074567;28;20021;-91
2023/07/23 09:42:25;;;;;;;3.38;2.42;;;29.90;80.40;;;;;;5071813;28;20024;-91
2023/07/23 09:44:51;;;;;;;6.53;3.28;;;30.00;79.50;;;;;;5073383;28;20039;-91
2023/07/23 09:47:27;;;;;;;5.45;3.10;;;30.10;79.30;;;;;;5072918;28;20036;-90
2023/07/23 09:49:54;;;;;;;3.83;2.85;;;30.10;79.50;;;;;;5075715;28;20099;-91
2023/07/23 09:52:26;;;;;;;3.70;2.63;;;30.20;79.70;;;;;;5054273;28;20259;-90
2023/07/23 09:54:53;;;;;;;5.25;2.95;;;30.30;79.50;;;;;;5037403;28;20123;-90
2023/07/23 09:57:20;;;;;;;3.42;2.33;;;30.40;79.30;;;;;;5062477;28;20029;-90
2023/07/23 09:59:47;;;;;;;4.00;2.70;;;30.50;78.70;;;;;;5054366;28;20083;-92
2023/07/23 10:02:15;;;;;;;5.95;2.75;;;30.60;78.70;;;;;;5071279;28;20082;-92
2023/07/23 10:04:41;;;;;;;7.22;2.70;;;30.70;78.40;;;;;;5073167;28;20039;-92
2023/07/23 10:07:07;;;;;;;7.07;2.92;;;30.70;78.10;;;;;;5066348;28;20031;-92
2023/07/23 10:09:33;;;;;;;5.40;2.85;;;30.80;78.20;;;;;;5074499;28;20048;-95
2023/07/23 10:11:59;;;;;;;4.85;2.63;;;30.90;77.90;;;;;;5052703;28;20027;-82
2023/07/23 10:14:24;;;;;;;4.32;3.22;;;31.00;78.30;;;;;;5068983;28;20125;-82
2023/07/23 10:16:52;;;;;;;5.10;3.17;;;31.00;78.20;;;;;;5054319;28;20032;-82
2023/07/23 10:19:19;;;;;;;6.25;3.25;;;31.10;78.00;;;;;;5065088;28;20037;-82
2023/07/23 10:21:51;;;;;;;5.93;2.63;;;31.20;78.00;;;;;;5057351;28;20104;-82
2023/07/23 10:24:17;;;;;;;5.95;3.38;;;31.30;77.60;;;;;;5045268;28;20079;-82
2023/07/23 10:26:47;;;;;;;4.22;2.72;;;31.40;77.80;;;;;;5045436;28;20029;-82
2023/07/23 10:29:18;;;;;;;4.30;2.60;;;31.50;77.70;;;;;;5063212;28;20029;-83
2023/07/23 10:31:44;;;;;;;7.10;3.85;;;31.60;77.70;;;;;;5068018;28;20378;-83
2023/07/23 10:34:39;;;;;;;7.35;2.72;;;31.70;77.00;;;;;;5069896;28;20036;-82
2023/07/23 10:37:18;;;;;;;3.97;2.80;;;31.90;76.60;;;;;;5050890;28;20052;-81
2023/07/23 10:39:46;;;;;;;4.13;2.75;;;32.00;76.30;;;;;;5065397;28;20032;-81
2023/07/23 10:42:41;;;;;;;4.18;2.70;;;32.20;76.70;;;;;;5067481;28;20123;-82
2023/07/23 10:45:28;;;;;;;4.32;2.75;;;32.30;76.00;;;;;;5064041;28;20033;-82
2023/07/23 10:47:57;;;;;;;4.95;3.00;;;32.30;75.10;;;;;;5072134;28;20036;-82
2023/07/23 10:50:25;;;;;;;5.75;3.03;;;32.20;75.00;;;;;;5071811;28;20032;-83
2023/07/23 10:53:04;;;;;;;5.75;3.33;;;32.10;75.10;;;;;;5068903;28;20114;-81
2023/07/23 10:55:47;;;;;;;4.82;2.70;;;32.00;75.90;;;;;;5060973;28;20218;-82
2023/07/23 10:58:15;;;;;;;5.22;3.05;;;32.10;76.00;;;;;;5069802;28;20028;-82
2023/07/23 11:00:46;;;;;;;4.82;2.58;;;32.20;76.00;;;;;;5062566;28;20510;-83
2023/07/23 11:03:17;;;;;;;6.70;2.90;;;32.20;75.20;;;;;;5059931;28;20036;-82
2023/07/23 11:05:43;;;;;;;7.57;2.90;;;32.20;74.90;;;;;;5059441;28;20028;-82
2023/07/23 11:08:16;;;;;;;5.93;3.17;;;32.10;75.10;;;;;;5053541;28;20151;-82
2023/07/23 11:11:02;;;;;;;5.38;3.20;;;32.20;75.30;;;;;;5071296;28;20030;-82
2023/07/23 11:13:32;;;;;;;3.67;3.00;;;32.50;75.70;;;;;;5070309;28;20028;-80
2023/07/23 11:15:59;;;;;;;4.72;3.08;;;32.70;76.20;;;;;;5054556;28;20098;-80
2023/07/23 11:18:25;;;;;;;6.18;2.97;;;32.90;75.30;;;;;;5072840;28;20036;-80
2023/07/23 11:20:53;;;;;;;6.20;3.28;;;33.10;75.30;;;;;;5069326;28;20028;-80
2023/07/23 11:23:22;;;;;;;5.22;2.85;;;33.30;74.60;;;;;;5054879;28;20028;-80
2023/07/23 11:25:48;;;;;;;;;;;33.50;74.40;;;;;;5072138;28;20020;-80
2023/07/23 11:28:17;;;;;;;8.50;3.75;;;33.70;74.00;;;;;;5070809;28;19920;-79
2023/07/23 11:30:43;;;;;;;7.77;2.97;;;33.90;73.70;;;;;;5066519;28;20496;-83
2023/07/23 11:33:11;;;;;;;4.80;3.25;;;34.10;73.60;;;;;;5069782;28;20111;-83
2023/07/23 11:35:38;;;;;;;7.32;3.58;;;34.20;73.10;;;;;;5069544;28;20020;-82
2023/07/23 11:38:05;;;;;;;5.57;3.05;;;34.40;72.00;;;;;;5077403;28;20038;-83
2023/07/23 11:40:31;;;;;;;5.45;3.40;;;34.50;72.00;;;;;;5075933;28;20033;-83
2023/07/23 11:43:06;;;;;;;5.25;3.17;;;34.60;71.80;;;;;;5076739;28;20367;-83
2023/07/23 11:45:50;;;;;;;6.38;3.65;;;34.70;71.60;;;;;;5071615;28;20040;-85
2023/07/23 11:48:21;;;;;;;5.18;2.70;;;34.80;71.10;;;;;;5054020;28;20060;-82
2023/07/23 11:50:48;;;;;;;6.82;3.33;;;35.00;70.70;;;;;;5072356;28;20024;-82
2023/07/23 11:53:29;;;;;;;4.88;3.03;;;35.00;70.10;;;;;;5072589;28;20036;-84
2023/07/23 11:56:04;;;;;;;5.22;2.70;;;35.30;69.60;;;;;;5053950;28;20507;-84
2023/07/23 11:58:31;;;;;;;7.18;3.42;;;35.50;68.80;;;;;;5074978;28;20036;-83
2023/07/23 12:00:57;;;;;;;6.63;3.45;;;35.50;68.50;;;;;;5076352;28;20036;-82
2023/07/23 12:03:22;;;;;;;7.25;2.90;;;35.30;68.20;;;;;;5069909;28;20040;-83
2023/07/23 12:05:50;;;;;;;6.80;3.80;;;35.10;68.20;;;;;;5075367;28;20065;-84
2023/07/23 12:08:16;;;;;;;3.80;2.63;;;34.70;68.60;;;;;;5074973;28;20025;-82
2023/07/23 12:10:42;;;;;;;6.15;3.60;;;34.40;69.30;;;;;;5075200;28;20035;-83
2023/07/23 12:13:09;;;;;;;5.15;3.33;;;34.40;70.40;;;;;;5076040;28;20501;-82
2023/07/23 12:15:37;;;;;;;4.60;2.70;;;34.60;70.60;;;;;;5064116;28;20033;-82
2023/07/23 12:18:03;;;;;;;7.75;3.42;;;34.50;69.80;;;;;;5075794;28;20115;-83
2023/07/23 12:20:29;;;;;;;4.97;3.25;;;34.60;70.60;;;;;;5075158;28;20108;-82
2023/07/23 12:22:56;;;;;;;7.13;3.10;;;34.90;70.70;;;;;;5075695;28;20030;-81
2023/07/23 12:25:24;;;;;;;6.25;3.33;;;35.30;69.40;;;;;;5069927;28;20035;-82
2023/07/23 12:27:53;;;;;;;5.78;3.42;;;35.70;69.00;;;;;;5056972;28;20079;-82
2023/07/23 12:30:19;;;;;;;6.70;3.30;;;36.00;68.90;;;;;;5069594;28;20029;-81
2023/07/23 12:32:46;;;;;;;8.85;3.80;;;36.40;68.90;;;;;;5059252;28;20112;-82
2023/07/23 12:35:11;;;;;;;5.00;2.97;;;36.70;68.30;;;;;;5071110;28;20078;-82
2023/07/23 12:37:37;;;;;;;4.80;3.10;;;37.00;66.80;;;;;;5060736;28;20040;-81
2023/07/23 12:40:04;;;;;;;7.05;4.00;;;37.20;65.40;;;;;;5053172;28;20044;-82
2023/07/23 12:42:33;;;;;;;5.57;3.30;;;37.30;65.00;;;;;;5053026;28;20033;-82
2023/07/23 12:45:00;;;;;;;4.40;3.40;;;37.20;64.60;;;;;;5074194;28;20082;-82
2023/07/23 12:47:29;;;;;;;7.07;3.33;;;37.20;64.60;;;;;;5070617;28;20083;-82
2023/07/23 12:49:58;;;;;;;6.68;3.58;;;37.30;64.20;;;;;;5075117;28;20032;-82